sensor_id;sensor_type;location;lat;lon;timestamp;P1;durP1;ratioP1;P2;durP2;ratioP2
68821;SDS011;55834;50.870;4.606;2024-01-30T00:01:00;5.03;;;3.55;;
68821;SDS011;55834;50.870;4.606;2024-01-30T00:03:26;11.73;;;5.60;;
68821;SDS011;55834;50.870;4.606;2024-01-30T00:05:51;6.75;;;4.75;;
68821;SDS011;55834;50.870;4.606;2024-01-30T00:08:17;7.72;;;4.30;;
68821;SDS011;55834;50.870;4.606;2024-01-30T00:10:42;7.63;;;4.72;;
68821;SDS011;55834;50.870;4.606;2024-01-30T00:13:08;7.70;;;4.80;;
68821;SDS011;55834;50.870;4.606;2024-01-30T00:15:34;7.82;;;4.43;;
68821;SDS011;55834;50.870;4.606;2024-01-30T00:17:59;8.45;;;5.20;;
68821;SDS011;55834;50.870;4.606;2024-01-30T00:20:25;7.88;;;4.75;;
68821;SDS011;55834;50.870;4.606;2024-01-30T00:22:50;8.23;;;4.53;;
68821;SDS011;55834;50.870;4.606;2024-01-30T00:25:16;8.60;;;3.70;;
68821;SDS011;55834;50.870;4.606;2024-01-30T00:27:41;7.77;;;4.57;;
68821;SDS011;55834;50.870;4.606;2024-01-30T00:30:07;6.22;;;4.05;;
68821;SDS011;55834;50.870;4.606;2024-01-30T00:32:32;7.38;;;4.80;;
68821;SDS011;55834;50.870;4.606;2024-01-30T00:34:58;7.32;;;3.92;;
68821;SDS011;55834;50.870;4.606;2024-01-30T00:37:23;5.28;;;3.92;;
68821;SDS011;55834;50.870;4.606;2024-01-30T00:39:49;6.07;;;3.57;;
68821;SDS011;55834;50.870;4.606;2024-01-30T00:42:14;6.07;;;3.83;;
68821;SDS011;55834;50.870;4.606;2024-01-30T00:44:40;6.10;;;4.65;;
68821;SDS011;55834;50.870;4.606;2024-01-30T00:47:05;6.88;;;4.63;;
68821;SDS011;55834;50.870;4.606;2024-01-30T00:49:31;6.75;;;3.97;;
68821;SDS011;55834;50.870;4.606;2024-01-30T00:51:56;5.27;;;3.50;;
68821;SDS011;55834;50.870;4.606;2024-01-30T00:54:22;6.13;;;3.50;;
68821;SDS011;55834;50.870;4.606;2024-01-30T00:56:47;7.55;;;5.20;;
68821;SDS011;55834;50.870;4.606;2024-01-30T00:59:13;6.53;;;3.60;;
68821;SDS011;55834;50.870;4.606;2024-01-30T01:01:38;7.47;;;3.90;;
68821;SDS011;55834;50.870;4.606;2024-01-30T01:04:03;4.53;;;3.13;;
68821;SDS011;55834;50.870;4.606;2024-01-30T01:06:29;5.70;;;4.25;;
68821;SDS011;55834;50.870;4.606;2024-01-30T01:08:54;8.80;;;4.23;;
68821;SDS011;55834;50.870;4.606;2024-01-30T01:11:20;6.30;;;3.43;;
68821;SDS011;55834;50.870;4.606;2024-01-30T01:13:45;6.50;;;4.20;;
68821;SDS011;55834;50.870;4.606;2024-01-30T01:16:10;6.57;;;4.20;;
68821;SDS011;55834;50.870;4.606;2024-01-30T01:18:36;5.53;;;3.78;;
68821;SDS011;55834;50.870;4.606;2024-01-30T01:21:01;8.27;;;4.43;;
68821;SDS011;55834;50.870;4.606;2024-01-30T01:23:26;5.33;;;4.60;;
68821;SDS011;55834;50.870;4.606;2024-01-30T01:25:52;6.73;;;4.57;;
68821;SDS011;55834;50.870;4.606;2024-01-30T01:28:17;5.07;;;3.23;;
68821;SDS011;55834;50.870;4.606;2024-01-30T01:30:43;6.07;;;4.45;;
68821;SDS011;55834;50.870;4.606;2024-01-30T01:33:09;5.10;;;3.20;;
68821;SDS011;55834;50.870;4.606;2024-01-30T01:35:35;5.03;;;4.00;;
68821;SDS011;55834;50.870;4.606;2024-01-30T01:38:00;6.55;;;4.22;;
68821;SDS011;55834;50.870;4.606;2024-01-30T01:40:26;7.13;;;3.63;;
68821;SDS011;55834;50.870;4.606;2024-01-30T01:42:53;6.13;;;4.13;;
68821;SDS011;55834;50.870;4.606;2024-01-30T01:45:20;6.82;;;3.60;;
68821;SDS011;55834;50.870;4.606;2024-01-30T01:47:47;5.90;;;4.03;;
68821;SDS011;55834;50.870;4.606;2024-01-30T01:50:15;5.47;;;3.85;;
68821;SDS011;55834;50.870;4.606;2024-01-30T01:52:46;6.72;;;3.75;;
68821;SDS011;55834;50.870;4.606;2024-01-30T01:55:13;6.85;;;5.03;;
68821;SDS011;55834;50.870;4.606;2024-01-30T01:57:39;5.35;;;3.42;;
68821;SDS011;55834;50.870;4.606;2024-01-30T02:00:04;6.53;;;3.85;;
68821;SDS011;55834;50.870;4.606;2024-01-30T02:02:30;9.25;;;3.88;;
68821;SDS011;55834;50.870;4.606;2024-01-30T02:05:00;8.70;;;4.40;;
68821;SDS011;55834;50.870;4.606;2024-01-30T02:07:27;7.95;;;4.22;;
68821;SDS011;55834;50.870;4.606;2024-01-30T02:09:53;4.60;;;3.47;;
68821;SDS011;55834;50.870;4.606;2024-01-30T02:12:19;6.05;;;3.10;;
68821;SDS011;55834;50.870;4.606;2024-01-30T02:14:45;6.73;;;3.73;;
68821;SDS011;55834;50.870;4.606;2024-01-30T02:17:11;5.07;;;3.60;;
68821;SDS011;55834;50.870;4.606;2024-01-30T02:19:37;5.38;;;3.72;;
68821;SDS011;55834;50.870;4.606;2024-01-30T02:22:03;6.90;;;3.70;;
68821;SDS011;55834;50.870;4.606;2024-01-30T02:24:29;9.05;;;5.13;;
68821;SDS011;55834;50.870;4.606;2024-01-30T02:26:55;6.70;;;4.35;;
68821;SDS011;55834;50.870;4.606;2024-01-30T02:29:20;7.65;;;4.10;;
68821;SDS011;55834;50.870;4.606;2024-01-30T02:31:46;6.78;;;4.57;;
68821;SDS011;55834;50.870;4.606;2024-01-30T02:34:11;10.63;;;5.63;;
68821;SDS011;55834;50.870;4.606;2024-01-30T02:36:36;10.57;;;4.55;;
68821;SDS011;55834;50.870;4.606;2024-01-30T02:39:02;7.67;;;4.70;;
68821;SDS011;55834;50.870;4.606;2024-01-30T02:41:28;6.95;;;4.75;;
68821;SDS011;55834;50.870;4.606;2024-01-30T02:43:53;6.20;;;4.47;;
68821;SDS011;55834;50.870;4.606;2024-01-30T02:46:19;8.82;;;4.95;;
68821;SDS011;55834;50.870;4.606;2024-01-30T02:48:44;12.45;;;6.25;;
68821;SDS011;55834;50.870;4.606;2024-01-30T02:51:10;10.50;;;4.47;;
68821;SDS011;55834;50.870;4.606;2024-01-30T02:53:35;7.70;;;4.05;;
68821;SDS011;55834;50.870;4.606;2024-01-30T02:56:02;4.65;;;3.55;;
68821;SDS011;55834;50.870;4.606;2024-01-30T02:58:27;7.65;;;4.22;;
68821;SDS011;55834;50.870;4.606;2024-01-30T03:00:53;5.55;;;4.47;;
68821;SDS011;55834;50.870;4.606;2024-01-30T03:03:18;5.87;;;4.70;;
68821;SDS011;55834;50.870;4.606;2024-01-30T03:05:43;4.17;;;3.50;;
68821;SDS011;55834;50.870;4.606;2024-01-30T03:08:09;6.90;;;5.03;;
68821;SDS011;55834;50.870;4.606;2024-01-30T03:10:35;4.47;;;3.58;;
68821;SDS011;55834;50.870;4.606;2024-01-30T03:13:00;3.85;;;3.35;;
68821;SDS011;55834;50.870;4.606;2024-01-30T03:15:26;4.07;;;3.30;;
68821;SDS011;55834;50.870;4.606;2024-01-30T03:17:51;3.83;;;2.83;;
68821;SDS011;55834;50.870;4.606;2024-01-30T03:20:16;6.30;;;3.27;;
68821;SDS011;55834;50.870;4.606;2024-01-30T03:22:42;5.67;;;3.33;;
68821;SDS011;55834;50.870;4.606;2024-01-30T03:25:07;6.33;;;2.47;;
68821;SDS011;55834;50.870;4.606;2024-01-30T03:27:33;4.43;;;3.58;;
68821;SDS011;55834;50.870;4.606;2024-01-30T03:29:58;4.63;;;2.87;;
68821;SDS011;55834;50.870;4.606;2024-01-30T03:32:23;3.63;;;3.20;;
68821;SDS011;55834;50.870;4.606;2024-01-30T03:34:49;6.43;;;3.67;;
68821;SDS011;55834;50.870;4.606;2024-01-30T03:37:15;4.20;;;2.78;;
68821;SDS011;55834;50.870;4.606;2024-01-30T03:39:40;6.00;;;3.90;;
68821;SDS011;55834;50.870;4.606;2024-01-30T03:42:05;4.53;;;3.47;;
68821;SDS011;55834;50.870;4.606;2024-01-30T03:44:31;7.13;;;4.13;;
68821;SDS011;55834;50.870;4.606;2024-01-30T03:46:56;5.63;;;3.37;;
68821;SDS011;55834;50.870;4.606;2024-01-30T03:49:21;6.70;;;4.00;;
68821;SDS011;55834;50.870;4.606;2024-01-30T03:51:47;4.30;;;3.53;;
68821;SDS011;55834;50.870;4.606;2024-01-30T03:54:12;4.95;;;3.92;;
68821;SDS011;55834;50.870;4.606;2024-01-30T03:56:38;3.25;;;2.50;;
68821;SDS011;55834;50.870;4.606;2024-01-30T03:59:03;3.90;;;3.40;;
68821;SDS011;55834;50.870;4.606;2024-01-30T04:01:29;4.90;;;3.67;;
68821;SDS011;55834;50.870;4.606;2024-01-30T04:03:54;3.97;;;3.42;;
68821;SDS011;55834;50.870;4.606;2024-01-30T04:06:19;4.23;;;3.03;;
68821;SDS011;55834;50.870;4.606;2024-01-30T04:08:45;3.80;;;3.38;;
68821;SDS011;55834;50.870;4.606;2024-01-30T04:11:10;3.60;;;3.30;;
68821;SDS011;55834;50.870;4.606;2024-01-30T04:13:36;4.50;;;2.93;;
68821;SDS011;55834;50.870;4.606;2024-01-30T04:16:01;4.97;;;3.53;;
68821;SDS011;55834;50.870;4.606;2024-01-30T04:18:27;4.35;;;3.00;;
68821;SDS011;55834;50.870;4.606;2024-01-30T04:20:53;7.85;;;4.15;;
68821;SDS011;55834;50.870;4.606;2024-01-30T04:23:19;5.15;;;3.58;;
68821;SDS011;55834;50.870;4.606;2024-01-30T04:25:44;4.82;;;3.90;;
68821;SDS011;55834;50.870;4.606;2024-01-30T04:28:10;4.77;;;2.80;;
68821;SDS011;55834;50.870;4.606;2024-01-30T04:33:02;5.30;;;2.92;;
68821;SDS011;55834;50.870;4.606;2024-01-30T04:35:28;4.38;;;3.10;;
68821;SDS011;55834;50.870;4.606;2024-01-30T04:37:53;7.28;;;3.88;;
68821;SDS011;55834;50.870;4.606;2024-01-30T04:40:19;5.97;;;3.38;;
68821;SDS011;55834;50.870;4.606;2024-01-30T04:42:45;4.82;;;3.80;;
68821;SDS011;55834;50.870;4.606;2024-01-30T04:45:11;5.83;;;3.63;;
68821;SDS011;55834;50.870;4.606;2024-01-30T04:47:37;4.68;;;3.55;;
68821;SDS011;55834;50.870;4.606;2024-01-30T04:50:04;4.70;;;3.95;;
68821;SDS011;55834;50.870;4.606;2024-01-30T04:52:31;4.90;;;3.03;;
68821;SDS011;55834;50.870;4.606;2024-01-30T04:54:56;5.78;;;2.95;;
68821;SDS011;55834;50.870;4.606;2024-01-30T04:57:22;3.90;;;3.00;;
68821;SDS011;55834;50.870;4.606;2024-01-30T04:59:47;6.13;;;3.75;;
68821;SDS011;55834;50.870;4.606;2024-01-30T05:02:13;4.78;;;3.33;;
68821;SDS011;55834;50.870;4.606;2024-01-30T05:04:38;4.95;;;3.25;;
68821;SDS011;55834;50.870;4.606;2024-01-30T05:09:31;6.47;;;2.83;;
68821;SDS011;55834;50.870;4.606;2024-01-30T05:11:56;4.47;;;2.63;;
68821;SDS011;55834;50.870;4.606;2024-01-30T05:14:22;4.97;;;3.47;;
68821;SDS011;55834;50.870;4.606;2024-01-30T05:16:47;5.67;;;4.10;;
68821;SDS011;55834;50.870;4.606;2024-01-30T05:19:13;5.75;;;3.30;;
68821;SDS011;55834;50.870;4.606;2024-01-30T05:21:39;9.73;;;5.50;;
68821;SDS011;55834;50.870;4.606;2024-01-30T05:24:05;8.35;;;4.72;;
68821;SDS011;55834;50.870;4.606;2024-01-30T05:26:30;10.35;;;6.22;;
68821;SDS011;55834;50.870;4.606;2024-01-30T05:28:56;15.70;;;8.57;;
68821;SDS011;55834;50.870;4.606;2024-01-30T05:31:22;15.95;;;8.65;;
68821;SDS011;55834;50.870;4.606;2024-01-30T05:33:47;21.10;;;11.15;;
68821;SDS011;55834;50.870;4.606;2024-01-30T05:36:13;15.93;;;8.38;;
68821;SDS011;55834;50.870;4.606;2024-01-30T05:38:38;18.47;;;11.20;;
68821;SDS011;55834;50.870;4.606;2024-01-30T05:41:04;14.85;;;9.50;;
68821;SDS011;55834;50.870;4.606;2024-01-30T05:43:30;20.60;;;10.10;;
68821;SDS011;55834;50.870;4.606;2024-01-30T05:45:55;19.42;;;10.98;;
68821;SDS011;55834;50.870;4.606;2024-01-30T05:48:20;19.80;;;9.82;;
68821;SDS011;55834;50.870;4.606;2024-01-30T05:50:46;14.65;;;8.05;;
68821;SDS011;55834;50.870;4.606;2024-01-30T05:53:11;12.65;;;7.22;;
68821;SDS011;55834;50.870;4.606;2024-01-30T05:55:37;18.30;;;10.40;;
68821;SDS011;55834;50.870;4.606;2024-01-30T05:58:02;11.48;;;6.30;;
68821;SDS011;55834;50.870;4.606;2024-01-30T06:00:29;16.10;;;10.10;;
68821;SDS011;55834;50.870;4.606;2024-01-30T06:02:54;16.30;;;9.48;;
68821;SDS011;55834;50.870;4.606;2024-01-30T06:05:20;13.07;;;7.93;;
68821;SDS011;55834;50.870;4.606;2024-01-30T06:07:45;22.48;;;13.68;;
68821;SDS011;55834;50.870;4.606;2024-01-30T06:10:10;13.50;;;8.60;;
68821;SDS011;55834;50.870;4.606;2024-01-30T06:12:36;11.75;;;5.57;;
68821;SDS011;55834;50.870;4.606;2024-01-30T06:15:01;7.38;;;4.72;;
68821;SDS011;55834;50.870;4.606;2024-01-30T06:17:27;8.82;;;5.30;;
68821;SDS011;55834;50.870;4.606;2024-01-30T06:19:53;8.25;;;4.47;;
68821;SDS011;55834;50.870;4.606;2024-01-30T06:22:18;11.15;;;7.50;;
68821;SDS011;55834;50.870;4.606;2024-01-30T06:24:44;9.95;;;6.03;;
68821;SDS011;55834;50.870;4.606;2024-01-30T06:27:10;6.93;;;5.78;;
68821;SDS011;55834;50.870;4.606;2024-01-30T06:29:36;5.38;;;4.10;;
68821;SDS011;55834;50.870;4.606;2024-01-30T06:32:01;6.22;;;5.25;;
68821;SDS011;55834;50.870;4.606;2024-01-30T06:34:27;7.22;;;4.60;;
68821;SDS011;55834;50.870;4.606;2024-01-30T06:36:52;8.33;;;5.00;;
68821;SDS011;55834;50.870;4.606;2024-01-30T06:39:18;7.45;;;4.78;;
68821;SDS011;55834;50.870;4.606;2024-01-30T06:41:43;6.63;;;4.28;;
68821;SDS011;55834;50.870;4.606;2024-01-30T06:44:11;10.13;;;6.13;;
68821;SDS011;55834;50.870;4.606;2024-01-30T06:46:38;8.82;;;6.10;;
68821;SDS011;55834;50.870;4.606;2024-01-30T06:49:03;6.53;;;4.65;;
68821;SDS011;55834;50.870;4.606;2024-01-30T06:51:29;5.47;;;3.90;;
68821;SDS011;55834;50.870;4.606;2024-01-30T06:53:54;11.43;;;4.85;;
68821;SDS011;55834;50.870;4.606;2024-01-30T06:56:20;7.17;;;4.73;;
68821;SDS011;55834;50.870;4.606;2024-01-30T06:58:49;6.80;;;4.65;;
68821;SDS011;55834;50.870;4.606;2024-01-30T07:01:15;7.82;;;4.47;;
68821;SDS011;55834;50.870;4.606;2024-01-30T07:03:41;6.50;;;4.47;;
68821;SDS011;55834;50.870;4.606;2024-01-30T07:06:07;5.75;;;4.07;;
68821;SDS011;55834;50.870;4.606;2024-01-30T07:08:33;7.72;;;4.50;;
68821;SDS011;55834;50.870;4.606;2024-01-30T07:10:58;10.38;;;4.45;;
68821;SDS011;55834;50.870;4.606;2024-01-30T07:13:24;6.63;;;4.90;;
68821;SDS011;55834;50.870;4.606;2024-01-30T07:15:50;6.70;;;3.95;;
68821;SDS011;55834;50.870;4.606;2024-01-30T07:18:15;8.23;;;5.00;;
68821;SDS011;55834;50.870;4.606;2024-01-30T07:20:40;5.43;;;4.10;;
68821;SDS011;55834;50.870;4.606;2024-01-30T07:23:14;7.82;;;5.35;;
68821;SDS011;55834;50.870;4.606;2024-01-30T07:25:42;5.78;;;3.67;;
68821;SDS011;55834;50.870;4.606;2024-01-30T07:28:08;8.98;;;6.03;;
68821;SDS011;55834;50.870;4.606;2024-01-30T07:30:42;11.23;;;4.65;;
68821;SDS011;55834;50.870;4.606;2024-01-30T07:33:07;6.45;;;4.47;;
68821;SDS011;55834;50.870;4.606;2024-01-30T07:35:33;9.02;;;4.75;;
68821;SDS011;55834;50.870;4.606;2024-01-30T07:37:59;9.60;;;6.03;;
68821;SDS011;55834;50.870;4.606;2024-01-30T07:40:24;6.77;;;4.43;;
68821;SDS011;55834;50.870;4.606;2024-01-30T07:42:50;6.80;;;4.23;;
68821;SDS011;55834;50.870;4.606;2024-01-30T07:45:15;6.10;;;4.30;;
68821;SDS011;55834;50.870;4.606;2024-01-30T07:47:41;6.35;;;4.55;;
68821;SDS011;55834;50.870;4.606;2024-01-30T07:50:07;6.28;;;4.28;;
68821;SDS011;55834;50.870;4.606;2024-01-30T07:52:33;7.55;;;4.18;;
68821;SDS011;55834;50.870;4.606;2024-01-30T07:54:59;8.38;;;5.30;;
68821;SDS011;55834;50.870;4.606;2024-01-30T07:57:24;9.45;;;4.80;;
68821;SDS011;55834;50.870;4.606;2024-01-30T07:59:50;6.78;;;3.92;;
68821;SDS011;55834;50.870;4.606;2024-01-30T08:02:15;6.72;;;3.92;;
68821;SDS011;55834;50.870;4.606;2024-01-30T08:04:40;9.30;;;5.20;;
68821;SDS011;55834;50.870;4.606;2024-01-30T08:07:06;7.05;;;3.67;;
68821;SDS011;55834;50.870;4.606;2024-01-30T08:09:31;7.07;;;5.38;;
68821;SDS011;55834;50.870;4.606;2024-01-30T08:11:57;8.40;;;4.60;;
68821;SDS011;55834;50.870;4.606;2024-01-30T08:14:22;6.60;;;4.70;;
68821;SDS011;55834;50.870;4.606;2024-01-30T08:16:48;4.75;;;4.25;;
68821;SDS011;55834;50.870;4.606;2024-01-30T08:19:14;9.80;;;4.00;;
68821;SDS011;55834;50.870;4.606;2024-01-30T08:21:40;6.57;;;3.90;;
68821;SDS011;55834;50.870;4.606;2024-01-30T08:24:05;6.43;;;5.13;;
68821;SDS011;55834;50.870;4.606;2024-01-30T08:26:31;9.05;;;4.22;;
68821;SDS011;55834;50.870;4.606;2024-01-30T08:28:57;6.20;;;4.18;;
68821;SDS011;55834;50.870;4.606;2024-01-30T08:31:23;5.15;;;4.65;;
68821;SDS011;55834;50.870;4.606;2024-01-30T08:33:48;7.35;;;5.32;;
68821;SDS011;55834;50.870;4.606;2024-01-30T08:36:14;5.97;;;4.82;;
68821;SDS011;55834;50.870;4.606;2024-01-30T08:38:40;8.18;;;4.10;;
68821;SDS011;55834;50.870;4.606;2024-01-30T08:41:07;6.60;;;4.87;;
68821;SDS011;55834;50.870;4.606;2024-01-30T08:43:33;6.20;;;3.72;;
68821;SDS011;55834;50.870;4.606;2024-01-30T08:45:58;6.07;;;4.63;;
68821;SDS011;55834;50.870;4.606;2024-01-30T08:48:25;7.55;;;4.50;;
68821;SDS011;55834;50.870;4.606;2024-01-30T08:50:50;7.60;;;4.18;;
68821;SDS011;55834;50.870;4.606;2024-01-30T08:53:16;6.40;;;4.10;;
68821;SDS011;55834;50.870;4.606;2024-01-30T08:55:41;8.17;;;5.60;;
68821;SDS011;55834;50.870;4.606;2024-01-30T08:58:07;9.80;;;4.78;;
68821;SDS011;55834;50.870;4.606;2024-01-30T09:00:32;7.82;;;4.55;;
68821;SDS011;55834;50.870;4.606;2024-01-30T09:02:58;6.38;;;3.47;;
68821;SDS011;55834;50.870;4.606;2024-01-30T09:05:23;6.30;;;3.88;;
68821;SDS011;55834;50.870;4.606;2024-01-30T09:07:49;6.33;;;3.77;;
68821;SDS011;55834;50.870;4.606;2024-01-30T09:10:14;6.33;;;4.47;;
68821;SDS011;55834;50.870;4.606;2024-01-30T09:12:40;5.45;;;3.53;;
68821;SDS011;55834;50.870;4.606;2024-01-30T09:15:05;6.27;;;4.30;;
68821;SDS011;55834;50.870;4.606;2024-01-30T09:17:31;7.97;;;4.47;;
68821;SDS011;55834;50.870;4.606;2024-01-30T09:19:56;7.10;;;3.95;;
68821;SDS011;55834;50.870;4.606;2024-01-30T09:22:21;6.03;;;4.23;;
68821;SDS011;55834;50.870;4.606;2024-01-30T09:24:47;7.43;;;4.43;;
68821;SDS011;55834;50.870;4.606;2024-01-30T09:27:12;8.27;;;5.23;;
68821;SDS011;55834;50.870;4.606;2024-01-30T09:29:38;5.68;;;4.22;;
68821;SDS011;55834;50.870;4.606;2024-01-30T09:32:04;11.43;;;4.38;;
68821;SDS011;55834;50.870;4.606;2024-01-30T09:34:31;8.40;;;4.85;;
68821;SDS011;55834;50.870;4.606;2024-01-30T09:36:58;8.05;;;4.15;;
68821;SDS011;55834;50.870;4.606;2024-01-30T09:41:52;13.17;;;4.70;;
68821;SDS011;55834;50.870;4.606;2024-01-30T09:44:25;10.82;;;5.55;;
68821;SDS011;55834;50.870;4.606;2024-01-30T09:46:53;8.63;;;4.47;;
68821;SDS011;55834;50.870;4.606;2024-01-30T09:49:19;7.00;;;3.97;;
68821;SDS011;55834;50.870;4.606;2024-01-30T09:51:45;7.72;;;4.60;;
68821;SDS011;55834;50.870;4.606;2024-01-30T09:54:13;5.05;;;3.45;;
68821;SDS011;55834;50.870;4.606;2024-01-30T09:56:39;8.48;;;4.18;;
68821;SDS011;55834;50.870;4.606;2024-01-30T09:59:04;6.30;;;4.88;;
68821;SDS011;55834;50.870;4.606;2024-01-30T10:01:29;5.30;;;3.97;;
68821;SDS011;55834;50.870;4.606;2024-01-30T10:03:56;11.50;;;5.20;;
68821;SDS011;55834;50.870;4.606;2024-01-30T10:06:22;8.18;;;5.53;;
68821;SDS011;55834;50.870;4.606;2024-01-30T10:08:49;11.63;;;5.28;;
68821;SDS011;55834;50.870;4.606;2024-01-30T10:11:15;7.87;;;5.43;;
68821;SDS011;55834;50.870;4.606;2024-01-30T10:13:40;10.13;;;4.93;;
68821;SDS011;55834;50.870;4.606;2024-01-30T10:16:05;7.47;;;4.87;;
68821;SDS011;55834;50.870;4.606;2024-01-30T10:18:31;9.77;;;4.97;;
68821;SDS011;55834;50.870;4.606;2024-01-30T10:20:58;9.10;;;5.07;;
68821;SDS011;55834;50.870;4.606;2024-01-30T10:23:25;9.07;;;4.95;;
68821;SDS011;55834;50.870;4.606;2024-01-30T10:25:51;8.60;;;5.20;;
68821;SDS011;55834;50.870;4.606;2024-01-30T10:28:17;11.25;;;5.40;;
68821;SDS011;55834;50.870;4.606;2024-01-30T10:30:43;9.45;;;5.38;;
68821;SDS011;55834;50.870;4.606;2024-01-30T10:33:08;10.90;;;5.50;;
68821;SDS011;55834;50.870;4.606;2024-01-30T10:35:34;6.90;;;4.90;;
68821;SDS011;55834;50.870;4.606;2024-01-30T10:37:59;7.13;;;4.95;;
68821;SDS011;55834;50.870;4.606;2024-01-30T10:40:28;7.55;;;5.03;;
68821;SDS011;55834;50.870;4.606;2024-01-30T10:42:55;10.68;;;6.00;;
68821;SDS011;55834;50.870;4.606;2024-01-30T10:45:21;10.95;;;5.82;;
68821;SDS011;55834;50.870;4.606;2024-01-30T10:47:52;9.57;;;5.30;;
68821;SDS011;55834;50.870;4.606;2024-01-30T10:52:48;10.88;;;5.88;;
68821;SDS011;55834;50.870;4.606;2024-01-30T10:55:14;9.48;;;5.78;;
68821;SDS011;55834;50.870;4.606;2024-01-30T10:57:40;12.95;;;6.18;;
68821;SDS011;55834;50.870;4.606;2024-01-30T11:00:07;8.97;;;4.87;;
68821;SDS011;55834;50.870;4.606;2024-01-30T11:02:46;6.32;;;3.97;;
68821;SDS011;55834;50.870;4.606;2024-01-30T11:05:12;6.93;;;3.92;;
68821;SDS011;55834;50.870;4.606;2024-01-30T11:07:40;9.80;;;4.68;;
68821;SDS011;55834;50.870;4.606;2024-01-30T11:10:08;6.75;;;4.88;;
68821;SDS011;55834;50.870;4.606;2024-01-30T11:12:38;4.95;;;3.47;;
68821;SDS011;55834;50.870;4.606;2024-01-30T11:15:17;11.43;;;4.07;;
68821;SDS011;55834;50.870;4.606;2024-01-30T11:17:44;9.93;;;3.78;;
68821;SDS011;55834;50.870;4.606;2024-01-30T11:20:10;7.65;;;4.00;;
68821;SDS011;55834;50.870;4.606;2024-01-30T11:22:45;7.00;;;4.13;;
68821;SDS011;55834;50.870;4.606;2024-01-30T11:25:15;8.55;;;4.47;;
68821;SDS011;55834;50.870;4.606;2024-01-30T11:27:44;8.00;;;3.58;;
68821;SDS011;55834;50.870;4.606;2024-01-30T11:30:20;6.28;;;3.13;;
68821;SDS011;55834;50.870;4.606;2024-01-30T11:33:05;6.00;;;3.38;;
68821;SDS011;55834;50.870;4.606;2024-01-30T11:35:32;7.78;;;2.70;;
68821;SDS011;55834;50.870;4.606;2024-01-30T11:37:59;5.15;;;3.00;;
68821;SDS011;55834;50.870;4.606;2024-01-30T11:40:29;7.88;;;3.53;;
68821;SDS011;55834;50.870;4.606;2024-01-30T11:42:56;5.97;;;2.67;;
68821;SDS011;55834;50.870;4.606;2024-01-30T11:45:23;9.93;;;3.17;;
68821;SDS011;55834;50.870;4.606;2024-01-30T11:47:48;6.82;;;2.72;;
68821;SDS011;55834;50.870;4.606;2024-01-30T11:50:14;5.30;;;2.70;;
68821;SDS011;55834;50.870;4.606;2024-01-30T11:52:40;4.75;;;2.85;;
68821;SDS011;55834;50.870;4.606;2024-01-30T11:55:06;4.28;;;1.90;;
68821;SDS011;55834;50.870;4.606;2024-01-30T11:57:33;4.03;;;2.22;;
68821;SDS011;55834;50.870;4.606;2024-01-30T12:00:00;5.13;;;2.40;;
68821;SDS011;55834;50.870;4.606;2024-01-30T12:02:26;7.53;;;1.55;;
68821;SDS011;55834;50.870;4.606;2024-01-30T12:04:51;3.80;;;1.52;;
68821;SDS011;55834;50.870;4.606;2024-01-30T12:07:17;0.88;;;0.85;;
68821;SDS011;55834;50.870;4.606;2024-01-30T12:09:51;2.72;;;0.80;;
68821;SDS011;55834;50.870;4.606;2024-01-30T12:12:17;2.70;;;0.80;;
68821;SDS011;55834;50.870;4.606;2024-01-30T12:14:43;1.07;;;0.83;;
68821;SDS011;55834;50.870;4.606;2024-01-30T12:17:08;1.38;;;0.70;;
68821;SDS011;55834;50.870;4.606;2024-01-30T12:19:34;2.40;;;1.13;;
68821;SDS011;55834;50.870;4.606;2024-01-30T12:21:59;1.87;;;0.73;;
68821;SDS011;55834;50.870;4.606;2024-01-30T12:24:25;1.33;;;1.03;;
68821;SDS011;55834;50.870;4.606;2024-01-30T12:26:52;1.08;;;0.80;;
68821;SDS011;55834;50.870;4.606;2024-01-30T12:29:21;1.75;;;0.90;;
68821;SDS011;55834;50.870;4.606;2024-01-30T12:31:47;2.70;;;0.60;;
68821;SDS011;55834;50.870;4.606;2024-01-30T12:34:15;0.40;;;0.40;;
68821;SDS011;55834;50.870;4.606;2024-01-30T12:36:42;1.45;;;0.82;;
68821;SDS011;55834;50.870;4.606;2024-01-30T12:39:10;2.17;;;0.40;;
68821;SDS011;55834;50.870;4.606;2024-01-30T12:41:37;0.30;;;0.22;;
68821;SDS011;55834;50.870;4.606;2024-01-30T12:44:03;0.85;;;0.57;;
68821;SDS011;55834;50.870;4.606;2024-01-30T12:46:28;1.70;;;0.77;;
68821;SDS011;55834;50.870;4.606;2024-01-30T12:48:54;2.05;;;0.88;;
68821;SDS011;55834;50.870;4.606;2024-01-30T12:51:19;0.73;;;0.67;;
68821;SDS011;55834;50.870;4.606;2024-01-30T12:53:45;1.75;;;0.60;;
68821;SDS011;55834;50.870;4.606;2024-01-30T12:56:12;4.20;;;1.02;;
68821;SDS011;55834;50.870;4.606;2024-01-30T12:58:38;1.27;;;0.40;;
68821;SDS011;55834;50.870;4.606;2024-01-30T13:01:03;2.03;;;0.90;;
68821;SDS011;55834;50.870;4.606;2024-01-30T13:03:29;0.93;;;0.40;;
68821;SDS011;55834;50.870;4.606;2024-01-30T13:05:54;1.02;;;0.40;;
68821;SDS011;55834;50.870;4.606;2024-01-30T13:08:20;1.45;;;0.55;;
68821;SDS011;55834;50.870;4.606;2024-01-30T13:10:46;1.77;;;0.38;;
68821;SDS011;55834;50.870;4.606;2024-01-30T13:13:11;1.07;;;0.60;;
68821;SDS011;55834;50.870;4.606;2024-01-30T13:15:37;4.20;;;1.20;;
68821;SDS011;55834;50.870;4.606;2024-01-30T13:18:03;1.48;;;0.43;;
68821;SDS011;55834;50.870;4.606;2024-01-30T13:20:30;2.10;;;0.43;;
68821;SDS011;55834;50.870;4.606;2024-01-30T13:22:58;0.75;;;0.57;;
68821;SDS011;55834;50.870;4.606;2024-01-30T13:25:24;2.28;;;0.80;;
68821;SDS011;55834;50.870;4.606;2024-01-30T13:27:49;1.47;;;1.07;;
68821;SDS011;55834;50.870;4.606;2024-01-30T13:30:14;1.52;;;0.40;;
68821;SDS011;55834;50.870;4.606;2024-01-30T13:32:40;2.17;;;0.73;;
68821;SDS011;55834;50.870;4.606;2024-01-30T13:35:09;1.17;;;0.38;;
68821;SDS011;55834;50.870;4.606;2024-01-30T13:37:34;1.45;;;1.00;;
68821;SDS011;55834;50.870;4.606;2024-01-30T13:40:00;1.17;;;0.45;;
68821;SDS011;55834;50.870;4.606;2024-01-30T13:42:26;1.42;;;0.40;;
68821;SDS011;55834;50.870;4.606;2024-01-30T13:44:52;0.50;;;0.50;;
68821;SDS011;55834;50.870;4.606;2024-01-30T13:47:18;1.60;;;1.10;;
68821;SDS011;55834;50.870;4.606;2024-01-30T13:49:46;2.03;;;0.60;;
68821;SDS011;55834;50.870;4.606;2024-01-30T13:52:12;2.75;;;0.65;;
68821;SDS011;55834;50.870;4.606;2024-01-30T13:54:38;4.10;;;0.95;;
68821;SDS011;55834;50.870;4.606;2024-01-30T13:57:03;0.85;;;0.40;;
68821;SDS011;55834;50.870;4.606;2024-01-30T13:59:29;2.67;;;0.77;;
68821;SDS011;55834;50.870;4.606;2024-01-30T14:01:55;3.08;;;1.63;;
68821;SDS011;55834;50.870;4.606;2024-01-30T14:04:20;1.93;;;1.13;;
68821;SDS011;55834;50.870;4.606;2024-01-30T14:06:46;2.15;;;0.85;;
68821;SDS011;55834;50.870;4.606;2024-01-30T14:09:11;3.17;;;0.43;;
68821;SDS011;55834;50.870;4.606;2024-01-30T14:11:36;1.45;;;0.40;;
68821;SDS011;55834;50.870;4.606;2024-01-30T14:14:02;5.60;;;1.00;;
68821;SDS011;55834;50.870;4.606;2024-01-30T14:16:27;3.15;;;0.93;;
68821;SDS011;55834;50.870;4.606;2024-01-30T14:18:53;2.88;;;1.73;;
68821;SDS011;55834;50.870;4.606;2024-01-30T14:21:19;1.50;;;0.95;;
68821;SDS011;55834;50.870;4.606;2024-01-30T14:23:44;2.40;;;0.50;;
68821;SDS011;55834;50.870;4.606;2024-01-30T14:26:10;1.93;;;0.93;;
68821;SDS011;55834;50.870;4.606;2024-01-30T14:28:35;0.77;;;0.38;;
68821;SDS011;55834;50.870;4.606;2024-01-30T14:31:01;2.63;;;0.70;;
68821;SDS011;55834;50.870;4.606;2024-01-30T14:33:26;4.47;;;1.05;;
68821;SDS011;55834;50.870;4.606;2024-01-30T14:35:51;1.50;;;1.27;;
68821;SDS011;55834;50.870;4.606;2024-01-30T14:38:17;4.57;;;0.88;;
68821;SDS011;55834;50.870;4.606;2024-01-30T14:40:42;1.13;;;0.88;;
68821;SDS011;55834;50.870;4.606;2024-01-30T14:43:08;1.40;;;0.50;;
68821;SDS011;55834;50.870;4.606;2024-01-30T14:45:36;2.85;;;0.82;;
68821;SDS011;55834;50.870;4.606;2024-01-30T14:48:02;2.60;;;0.93;;